Time;durP1;ratioP1;P1;durP2;ratioP2;P2;SDS_P1;SDS_P2;PMS_P1;PMS_P2;Temp;Humidity;BMP_temperature;BMP_pressure;BME280_temperature;BME280_humidity;BME280_pressure;Samples;Min_cycle;Max_cycle;Signal;HPM_P1;HPM_P2
2023/08/07 00:02:19;;;;;;;3.50;1.63;;;;;;;;;;4973365;28;20045;-59
2023/08/07 00:04:45;;;;;;;4.55;1.38;;;;;;;;;;4972496;28;20039;-60
2023/08/07 00:07:11;;;;;;;3.88;1.75;;;;;;;;;;4972769;28;20035;-60
2023/08/07 00:09:37;;;;;;;4.82;1.55;;;;;;;;;;4971450;28;20418;-60
2023/08/07 00:12:04;;;;;;;5.30;2.00;;;;;;;;;;4972600;28;20054;-59
2023/08/07 00:14:30;;;;;;;7.80;1.88;;;;;;;;;;4970892;28;20212;-61
2023/08/07 00:16:56;;;;;;;4.68;2.17;;;;;;;;;;4972989;28;20043;-60
2023/08/07 00:19:23;;;;;;;3.22;1.70;;;;;;;;;;4969944;28;20487;-60
2023/08/07 00:21:49;;;;;;;3.08;1.63;;;;;;;;;;4969337;28;20062;-60
2023/08/07 00:24:15;;;;;;;4.32;1.65;;;;;;;;;;4970873;28;20039;-60
2023/08/07 00:26:41;;;;;;;2.85;1.60;;;;;;;;;;4969068;28;20061;-60
2023/08/07 00:29:07;;;;;;;8.98;3.58;;;;;;;;;;4971529;28;20046;-60
2023/08/07 00:31:33;;;;;;;4.10;1.67;;;;;;;;;;4969506;28;20494;-59
2023/08/07 00:33:59;;;;;;;4.93;1.98;;;;;;;;;;4973409;28;20045;-60
2023/08/07 00:36:28;;;;;;;4.05;1.95;;;;;;;;;;4970416;28;20034;-60
2023/08/07 00:38:54;;;;;;;5.65;2.15;;;;;;;;;;4970312;28;20043;-60
2023/08/07 00:41:20;;;;;;;6.43;1.70;;;;;;;;;;4969515;28;20235;-60
2023/08/07 00:43:46;;;;;;;5.20;1.80;;;;;;;;;;4967142;28;20556;-60
2023/08/07 00:46:13;;;;;;;5.80;2.05;;;;;;;;;;4967130;28;20046;-60
2023/08/07 00:48:39;;;;;;;3.58;1.80;;;;;;;;;;4968954;28;20053;-60
2023/08/07 00:51:07;;;;;;;6.15;2.47;;;;;;;;;;4970500;28;20049;-60
2023/08/07 00:53:37;;;;;;;5.18;2.08;;;;;;;;;;4967550;28;20034;-60
2023/08/07 00:56:03;;;;;;;3.70;1.73;;;;;;;;;;4969931;28;20045;-60
2023/08/07 00:58:30;;;;;;;8.68;2.25;;;;;;;;;;4969084;28;20069;-60
2023/08/07 01:00:57;;;;;;;4.05;1.70;;;;;;;;;;4954466;28;20486;-60
2023/08/07 01:03:24;;;;;;;4.38;1.88;;;;;;;;;;4968076;28;20046;-60
2023/08/07 01:05:50;;;;;;;4.45;1.70;;;;;;;;;;4970978;28;20066;-60
2023/08/07 01:08:17;;;;;;;5.90;1.80;;;;;;;;;;4971912;28;20038;-60
2023/08/07 01:11:17;;;;;;;3.13;1.50;;;;;;;;;;4969643;28;20046;-61
2023/08/07 01:14:02;;;;;;;7.00;1.92;;;;;;;;;;4969246;28;20034;-61
2023/08/07 01:16:45;;;;;;;4.95;1.70;;;;;;;;;;4970052;28;20027;-60
2023/08/07 01:19:23;;;;;;;3.17;1.58;;;;;;;;;;4969774;28;20086;-60
2023/08/07 01:21:49;;;;;;;3.13;1.70;;;;;;;;;;4984084;28;20047;-60
2023/08/07 01:24:15;;;;;;;3.63;1.42;;;;;;;;;;4968464;28;20053;-60
2023/08/07 01:26:45;;;;;;;3.30;1.70;;;;;;;;;;4968326;28;20521;-60
2023/08/07 01:29:29;;;;;;;3.42;1.73;;;;;;;;;;4968286;28;20045;-60
2023/08/07 01:31:58;;;;;;;4.00;1.83;;;;;;;;;;4958901;28;20074;-60
2023/08/07 01:34:25;;;;;;;4.00;2.03;;;;;;;;;;4968660;28;20041;-60
2023/08/07 01:36:54;;;;;;;4.68;1.63;;;;;;;;;;4953766;28;20050;-60
2023/08/07 01:39:23;;;;;;;4.85;1.80;;;;;;;;;;4968101;28;20402;-60
2023/08/07 01:41:50;;;;;;;5.75;1.88;;;;;;;;;;4968803;28;20045;-60
2023/08/07 01:44:16;;;;;;;3.55;1.85;;;;;;;;;;4967943;28;20051;-60
2023/08/07 01:46:42;;;;;;;4.18;1.95;;;;;;;;;;4965764;28;20042;-61
2023/08/07 01:49:08;;;;;;;4.32;1.67;;;;;;;;;;4969083;28;20517;-60
2023/08/07 01:51:34;;;;;;;6.32;1.90;;;;;;;;;;4967557;28;20147;-60
2023/08/07 01:54:00;;;;;;;4.47;2.05;;;;;;;;;;4967726;28;20034;-60
2023/08/07 01:56:26;;;;;;;3.78;1.63;;;;;;;;;;4968959;28;20053;-60
2023/08/07 01:58:52;;;;;;;9.48;2.50;;;;;;;;;;4968598;28;20065;-60
2023/08/07 02:01:19;;;;;;;4.88;2.10;;;;;;;;;;4968188;28;20050;-60
2023/08/07 02:03:45;;;;;;;3.55;1.80;;;;;;;;;;4966394;28;20469;-60
2023/08/07 02:06:11;;;;;;;4.47;2.03;;;;;;;;;;4971759;28;20397;-60
2023/08/07 02:08:37;;;;;;;5.82;2.35;;;;;;;;;;4967905;28;20043;-60
2023/08/07 02:11:03;;;;;;;5.05;2.30;;;;;;;;;;4970435;28;20042;-60
2023/08/07 02:13:29;;;;;;;3.97;1.95;;;;;;;;;;4965999;28;20035;-60
2023/08/07 02:15:55;;;;;;;7.63;2.42;;;;;;;;;;4966937;28;20391;-60
2023/08/07 02:18:21;;;;;;;5.50;2.22;;;;;;;;;;4967017;28;20069;-60
2023/08/07 02:20:47;;;;;;;5.13;2.25;;;;;;;;;;4968042;28;20039;-60
2023/08/07 02:23:13;;;;;;;4.38;1.88;;;;;;;;;;4968172;28;20427;-60
2023/08/07 02:25:39;;;;;;;6.22;1.90;;;;;;;;;;4967740;28;20110;-60
2023/08/07 02:28:05;;;;;;;5.80;1.83;;;;;;;;;;4966834;28;20062;-60
2023/08/07 02:30:33;;;;;;;3.47;1.80;;;;;;;;;;4967923;28;20039;-60
2023/08/07 02:32:59;;;;;;;4.63;1.90;;;;;;;;;;4969588;28;20058;-60
2023/08/07 02:35:25;;;;;;;3.17;2.05;;;;;;;;;;4968965;28;20050;-60
2023/08/07 02:37:52;;;;;;;4.90;1.85;;;;;;;;;;4964192;28;20430;-60
2023/08/07 02:40:19;;;;;;;5.70;1.77;;;;;;;;;;4964420;28;20402;-60
2023/08/07 02:42:45;;;;;;;4.03;1.80;;;;;;;;;;4950967;28;20073;-60
2023/08/07 02:45:11;;;;;;;5.07;2.00;;;;;;;;;;4962871;28;20046;-60
2023/08/07 02:47:37;;;;;;;7.28;3.00;;;;;;;;;;4965686;28;20035;-60
2023/08/07 02:50:03;;;;;;;6.57;1.92;;;;;;;;;;4967850;28;20054;-60
2023/08/07 02:52:30;;;;;;;4.13;1.95;;;;;;;;;;4961726;28;20525;-60
2023/08/07 02:54:56;;;;;;;4.50;2.08;;;;;;;;;;4964776;28;20042;-60
2023/08/07 02:57:22;;;;;;;5.20;2.15;;;;;;;;;;4970069;28;20038;-58
2023/08/07 02:59:48;;;;;;;7.82;2.45;;;;;;;;;;4968772;28;20042;-59
2023/08/07 03:02:14;;;;;;;5.13;2.10;;;;;;;;;;4967676;28;20045;-60
2023/08/07 03:04:40;;;;;;;6.88;2.03;;;;;;;;;;4947730;28;20042;-60
2023/08/07 03:07:06;;;;;;;4.50;1.95;;;;;;;;;;4968298;28;20050;-60
2023/08/07 03:09:32;;;;;;;3.80;2.00;;;;;;;;;;4965881;28;20490;-60
2023/08/07 03:12:03;;;;;;;5.10;2.10;;;;;;;;;;4967757;28;20046;-60
2023/08/07 03:14:29;;;;;;;6.03;1.90;;;;;;;;;;4965756;28;20031;-60
2023/08/07 03:16:55;;;;;;;4.70;2.00;;;;;;;;;;4967316;28;20047;-60
2023/08/07 03:19:22;;;;;;;4.75;1.92;;;;;;;;;;4965494;28;20035;-60
2023/08/07 03:21:48;;;;;;;5.80;2.13;;;;;;;;;;4968398;28;20050;-60
2023/08/07 03:24:14;;;;;;;5.45;2.20;;;;;;;;;;4968071;28;20405;-60
2023/08/07 03:26:40;;;;;;;4.43;1.80;;;;;;;;;;4966565;28;20426;-60
2023/08/07 03:29:07;;;;;;;7.68;2.42;;;;;;;;;;4966875;28;20502;-60
2023/08/07 03:31:33;;;;;;;5.60;2.30;;;;;;;;;;4967861;28;20042;-60
2023/08/07 03:34:00;;;;;;;4.05;1.70;;;;;;;;;;4967309;28;20030;-60
2023/08/07 03:36:27;;;;;;;7.13;1.73;;;;;;;;;;4964481;28;20027;-60
2023/08/07 03:38:53;;;;;;;6.75;2.20;;;;;;;;;;4965645;28;20054;-62
2023/08/07 03:41:19;;;;;;;5.32;2.10;;;;;;;;;;4964905;28;20034;-60
2023/08/07 03:43:46;;;;;;;8.95;2.20;;;;;;;;;;4961786;28;20510;-60
2023/08/07 03:46:13;;;;;;;7.57;2.20;;;;;;;;;;4965522;28;20050;-60
2023/08/07 03:48:39;;;;;;;4.53;1.80;;;;;;;;;;4980041;28;20387;-59
2023/08/07 03:51:10;;;;;;;7.65;1.85;;;;;;;;;;4966702;28;20042;-58
2023/08/07 03:53:49;;;;;;;4.18;1.85;;;;;;;;;;4966785;28;20047;-60
2023/08/07 03:56:15;;;;;;;6.85;2.38;;;;;;;;;;4969234;28;20026;-60
2023/08/07 03:58:41;;;;;;;6.40;2.00;;;;;;;;;;4969593;28;20053;-60
2023/08/07 04:01:08;;;;;;;4.28;1.85;;;;;;;;;;4967597;28;20465;-61
2023/08/07 04:03:35;;;;;;;5.63;2.45;;;;;;;;;;4964307;28;20035;-59
2023/08/07 04:06:01;;;;;;;3.83;1.80;;;;;;;;;;4968106;28;20043;-59
2023/08/07 04:08:27;;;;;;;6.40;2.05;;;;;;;;;;4965723;28;20038;-59
2023/08/07 04:11:07;;;;;;;4.47;2.13;;;;;;;;;;4967918;28;20035;-60
2023/08/07 04:13:34;;;;;;;4.10;1.90;;;;;;;;;;4963259;28;20051;-59
2023/08/07 04:16:04;;;;;;;8.60;2.42;;;;;;;;;;4965884;28;20355;-59
2023/08/07 04:18:33;;;;;;;5.30;2.10;;;;;;;;;;4965666;28;20168;-60
2023/08/07 04:21:02;;;;;;;5.43;1.98;;;;;;;;;;4966614;28;20047;-60
2023/08/07 04:23:28;;;;;;;4.63;2.65;;;;;;;;;;4965510;28;20041;-61
2023/08/07 04:25:54;;;;;;;5.13;2.13;;;;;;;;;;4969364;28;20049;-60
2023/08/07 04:28:20;;;;;;;4.38;1.98;;;;;;;;;;4967438;28;20045;-60
2023/08/07 04:30:50;;;;;;;4.85;2.33;;;;;;;;;;4973299;28;20046;-60
2023/08/07 04:33:17;;;;;;;5.55;2.17;;;;;;;;;;4968856;28;20041;-60
2023/08/07 04:35:43;;;;;;;4.10;1.83;;;;;;;;;;4969347;28;20042;-60
2023/08/07 04:38:09;;;;;;;6.57;2.20;;;;;;;;;;4970596;28;20487;-60
2023/08/07 04:40:35;;;;;;;5.10;1.92;;;;;;;;;;4969175;28;20510;-60
2023/08/07 04:43:02;;;;;;;5.70;2.67;;;;;;;;;;4969207;28;20046;-60
2023/08/07 04:45:28;;;;;;;8.07;2.17;;;;;;;;;;4969955;28;20039;-60
2023/08/07 04:47:54;;;;;;;4.43;2.22;;;;;;;;;;4970413;28;20038;-60
2023/08/07 04:50:20;;;;;;;5.45;2.22;;;;;;;;;;4970589;28;20031;-60
2023/08/07 04:52:46;;;;;;;4.93;1.98;;;;;;;;;;4970938;28;20042;-60
2023/08/07 04:55:12;;;;;;;4.45;2.45;;;;;;;;;;4969857;28;20039;-59
2023/08/07 04:57:38;;;;;;;3.80;2.00;;;;;;;;;;4970785;28;21806;-60
2023/08/07 05:00:05;;;;;;;4.68;2.17;;;;;;;;;;4971868;28;20038;-60
2023/08/07 05:02:31;;;;;;;5.10;2.30;;;;;;;;;;4970014;28;20047;-60
2023/08/07 05:04:58;;;;;;;5.47;2.80;;;;;;;;;;4969495;28;20035;-60
2023/08/07 05:07:24;;;;;;;9.43;3.10;;;;;;;;;;4971458;28;20046;-60
2023/08/07 05:09:53;;;;;;;6.13;2.38;;;;;;;;;;4973127;28;20049;-60
2023/08/07 05:12:22;;;;;;;4.90;2.30;;;;;;;;;;4968502;28;20418;-60
2023/08/07 05:14:48;;;;;;;6.20;2.33;;;;;;;;;;4969684;28;20046;-60
2023/08/07 05:17:14;;;;;;;5.03;2.38;;;;;;;;;;4970846;28;20066;-60
2023/08/07 05:19:40;;;;;;;5.72;2.10;;;;;;;;;;4969616;28;20043;-60
2023/08/07 05:22:07;;;;;;;7.25;2.22;;;;;;;;;;4974510;28;20045;-60
2023/08/07 05:24:38;;;;;;;6.65;2.60;;;;;;;;;;4969953;28;20074;-60
2023/08/07 05:27:08;;;;;;;5.30;2.30;;;;;;;;;;4970048;28;20042;-60
2023/08/07 05:29:34;;;;;;;6.50;2.67;;;;;;;;;;4968837;28;20051;-60
2023/08/07 05:32:00;;;;;;;7.95;3.35;;;;;;;;;;4967944;28;20039;-60
2023/08/07 05:34:26;;;;;;;4.20;2.42;;;;;;;;;;4967149;28;20426;-60
2023/08/07 05:36:52;;;;;;;6.28;2.28;;;;;;;;;;4967514;28;20514;-60
2023/08/07 05:39:19;;;;;;;7.65;2.95;;;;;;;;;;4965668;28;20034;-60
2023/08/07 05:41:45;;;;;;;5.20;2.72;;;;;;;;;;4967785;28;20042;-60
2023/08/07 05:44:11;;;;;;;6.53;2.53;;;;;;;;;;4963755;28;20054;-60
2023/08/07 05:46:37;;;;;;;6.30;2.28;;;;;;;;;;4970720;28;20411;-60
2023/08/07 05:49:03;;;;;;;6.22;2.60;;;;;;;;;;4963139;28;20065;-61
2023/08/07 05:51:29;;;;;;;5.47;2.10;;;;;;;;;;4970617;28;20471;-60
2023/08/07 05:53:55;;;;;;;4.60;2.22;;;;;;;;;;4968149;28;20034;-59
2023/08/07 05:56:21;;;;;;;4.28;2.30;;;;;;;;;;4968045;28;20049;-60
2023/08/07 05:58:47;;;;;;;4.57;2.17;;;;;;;;;;4970052;28;20565;-60
2023/08/07 06:01:16;;;;;;;4.40;2.03;;;;;;;;;;4968166;28;20073;-60
2023/08/07 06:03:42;;;;;;;4.90;2.20;;;;;;;;;;4969948;28;20422;-60
2023/08/07 06:06:09;;;;;;;4.10;2.20;;;;;;;;;;4969135;28;20061;-60
2023/08/07 06:08:35;;;;;;;5.32;2.08;;;;;;;;;;4969402;28;20415;-60
2023/08/07 06:11:04;;;;;;;6.35;2.38;;;;;;;;;;4968461;28;20058;-60
2023/08/07 06:13:31;;;;;;;4.80;2.30;;;;;;;;;;4966734;28;20053;-60
2023/08/07 06:15:57;;;;;;;4.60;2.25;;;;;;;;;;4969092;28;20054;-60
2023/08/07 06:18:23;;;;;;;10.90;2.47;;;;;;;;;;4968990;28;20047;-60
2023/08/07 06:20:49;;;;;;;8.40;2.53;;;;;;;;;;4968701;28;20046;-60
2023/08/07 06:23:15;;;;;;;7.18;2.40;;;;;;;;;;4970672;28;20038;-60
2023/08/07 06:25:42;;;;;;;5.30;2.47;;;;;;;;;;4969063;28;20047;-60
2023/08/07 06:28:08;;;;;;;5.88;2.00;;;;;;;;;;4970130;28;20062;-60
2023/08/07 06:30:34;;;;;;;8.57;2.85;;;;;;;;;;4969570;28;20043;-60
2023/08/07 06:33:01;;;;;;;5.05;2.55;;;;;;;;;;4964715;28;20404;-60
2023/08/07 06:35:27;;;;;;;4.93;2.20;;;;;;;;;;4966617;28;20046;-60
2023/08/07 06:37:53;;;;;;;7.72;2.25;;;;;;;;;;4967277;28;20043;-60
2023/08/07 06:40:19;;;;;;;5.68;2.58;;;;;;;;;;4968480;28;20035;-60
2023/08/07 06:42:45;;;;;;;6.88;2.50;;;;;;;;;;4967234;28;20494;-60
2023/08/07 06:45:11;;;;;;;7.20;2.53;;;;;;;;;;4965314;28;20047;-61
2023/08/07 06:47:37;;;;;;;6.57;2.40;;;;;;;;;;4966235;28;20039;-60
2023/08/07 06:50:04;;;;;;;6.80;2.15;;;;;;;;;;4949668;28;20050;-60
2023/08/07 06:52:30;;;;;;;5.28;2.40;;;;;;;;;;4964053;28;20058;-60
2023/08/07 06:54:56;;;;;;;5.85;2.28;;;;;;;;;;4966780;28;20031;-60
2023/08/07 06:57:22;;;;;;;4.53;2.50;;;;;;;;;;4966962;28;20045;-59
2023/08/07 06:59:48;;;;;;;8.45;2.72;;;;;;;;;;4968820;28;20583;-59
2023/08/07 07:02:14;;;;;;;5.35;2.40;;;;;;;;;;4967151;28;20035;-59
2023/08/07 07:04:41;;;;;;;6.68;3.08;;;;;;;;;;4966090;28;20055;-59
2023/08/07 07:07:07;;;;;;;3.55;2.58;;;;;;;;;;4963420;28;20050;-59
2023/08/07 07:09:33;;;;;;;5.55;2.42;;;;;;;;;;4960929;28;20042;-59
2023/08/07 07:11:59;;;;;;;5.35;2.60;;;;;;;;;;4967620;28;20049;-59
2023/08/07 07:14:25;;;;;;;4.70;2.35;;;;;;;;;;4967180;28;20034;-59
2023/08/07 07:16:51;;;;;;;4.47;2.33;;;;;;;;;;4966833;28;20030;-59
2023/08/07 07:19:18;;;;;;;3.95;2.00;;;;;;;;;;4968070;28;20046;-59
2023/08/07 07:21:44;;;;;;;4.35;2.78;;;;;;;;;;4968779;28;20050;-59
2023/08/07 07:24:10;;;;;;;8.32;2.58;;;;;;;;;;4968685;28;20030;-59
2023/08/07 07:26:36;;;;;;;8.13;2.00;;;;;;;;;;4970857;28;20043;-59
2023/08/07 07:29:02;;;;;;;6.15;2.60;;;;;;;;;;4970108;28;20062;-59
2023/08/07 07:31:28;;;;;;;6.82;2.67;;;;;;;;;;4964654;28;20037;-60
2023/08/07 07:33:55;;;;;;;6.80;2.55;;;;;;;;;;4961784;28;20065;-59
2023/08/07 07:36:21;;;;;;;6.72;2.65;;;;;;;;;;4960602;28;20046;-59
2023/08/07 07:38:47;;;;;;;10.05;2.63;;;;;;;;;;4962960;28;20043;-59
2023/08/07 07:41:15;;;;;;;6.90;2.42;;;;;;;;;;4961605;28;20045;-59
2023/08/07 07:43:41;;;;;;;3.97;2.20;;;;;;;;;;4961942;28;20046;-60
2023/08/07 07:46:07;;;;;;;3.55;2.25;;;;;;;;;;4965772;28;20767;-60
2023/08/07 07:48:34;;;;;;;9.02;2.42;;;;;;;;;;4962077;28;20050;-60
2023/08/07 07:51:01;;;;;;;4.68;2.25;;;;;;;;;;4964191;28;20403;-60
2023/08/07 07:53:28;;;;;;;5.35;2.30;;;;;;;;;;4966710;28;20502;-61
2023/08/07 07:55:54;;;;;;;5.97;2.80;;;;;;;;;;4967711;28;20047;-59
2023/08/07 07:58:20;;;;;;;8.60;3.20;;;;;;;;;;4965379;28;20053;-59
2023/08/07 08:00:47;;;;;;;4.03;2.47;;;;;;;;;;4964653;28;20505;-59
2023/08/07 08:03:13;;;;;;;4.30;2.40;;;;;;;;;;4961761;28;20400;-59
2023/08/07 08:05:39;;;;;;;4.90;2.47;;;;;;;;;;4968648;28;20054;-60
2023/08/07 08:08:07;;;;;;;6.78;2.65;;;;;;;;;;4972415;28;20037;-59
2023/08/07 08:10:34;;;;;;;5.90;2.42;;;;;;;;;;4970570;28;20051;-60
2023/08/07 08:13:00;;;;;;;6.40;2.70;;;;;;;;;;4970290;28;20034;-59
2023/08/07 08:15:26;;;;;;;5.55;2.40;;;;;;;;;;4969028;28;20050;-61
2023/08/07 08:17:52;;;;;;;6.60;2.60;;;;;;;;;;4969150;28;20042;-60
2023/08/07 08:20:19;;;;;;;9.02;2.58;;;;;;;;;;4971796;28;20039;-60
2023/08/07 08:22:45;;;;;;;5.07;2.50;;;;;;;;;;4972090;28;20041;-60
2023/08/07 08:25:12;;;;;;;4.60;2.30;;;;;;;;;;4972545;28;20038;-60
2023/08/07 08:27:39;;;;;;;3.70;2.30;;;;;;;;;;4972023;28;20035;-59
2023/08/07 08:30:06;;;;;;;5.57;2.50;;;;;;;;;;4967348;28;20054;-59
2023/08/07 08:32:32;;;;;;;5.80;2.30;;;;;;;;;;4967311;28;20399;-60
2023/08/07 08:34:58;;;;;;;7.82;2.63;;;;;;;;;;4967187;28;20438;-59
2023/08/07 08:37:25;;;;;;;4.97;2.45;;;;;;;;;;4965321;28;20031;-60
2023/08/07 08:39:51;;;;;;;4.57;2.00;;;;;;;;;;4965403;28;20051;-60
2023/08/07 08:42:20;;;;;;;4.88;2.15;;;;;;;;;;4969259;28;20403;-61
2023/08/07 08:44:54;;;;;;;3.17;2.25;;;;;;;;;;4968638;28;20043;-60
2023/08/07 08:47:21;;;;;;;4.40;2.08;;;;;;;;;;4968511;28;20034;-60
2023/08/07 08:49:54;;;;;;;2.50;1.80;;;;;;;;;;4965461;28;20527;-59
2023/08/07 08:52:21;;;;;;;7.53;2.08;;;;;;;;;;4965747;28;20047;-60
2023/08/07 08:54:47;;;;;;;4.50;1.90;;;;;;;;;;4972483;28;20058;-60
2023/08/07 08:57:13;;;;;;;3.47;1.90;;;;;;;;;;4970995;28;20374;-59
2023/08/07 08:59:42;;;;;;;3.60;1.67;;;;;;;;;;4967076;28;20051;-59
2023/08/07 09:02:10;;;;;;;2.95;1.50;;;;;;;;;;4971737;28;20050;-59
2023/08/07 09:04:36;;;;;;;4.10;1.73;;;;;;;;;;4967817;28;20054;-60
2023/08/07 09:07:04;;;;;;;4.65;1.73;;;;;;;;;;4969263;28;20043;-60
2023/08/07 09:09:30;;;;;;;4.07;1.70;;;;;;;;;;4966850;28;20398;-59
2023/08/07 09:11:58;;;;;;;4.88;1.60;;;;;;;;;;4969929;28;20065;-59
2023/08/07 09:14:26;;;;;;;2.22;1.48;;;;;;;;;;4966658;28;20039;-59
2023/08/07 09:16:53;;;;;;;2.28;1.50;;;;;;;;;;4968628;28;20415;-60
2023/08/07 09:19:20;;;;;;;2.85;1.50;;;;;;;;;;4966931;28;20055;-59
2023/08/07 09:21:46;;;;;;;3.97;1.50;;;;;;;;;;4971227;28;20050;-59
2023/08/07 09:24:12;;;;;;;4.43;2.03;;;;;;;;;;4968181;28;20050;-61
2023/08/07 09:26:43;;;;;;;2.83;1.50;;;;;;;;;;4971661;28;22141;-60
2023/08/07 09:29:10;;;;;;;1.83;1.30;;;;;;;;;;4967566;28;20051;-60
2023/08/07 09:31:45;;;;;;;3.88;1.40;;;;;;;;;;4966149;28;20053;-60
2023/08/07 09:34:13;;;;;;;2.22;1.40;;;;;;;;;;4969632;28;20402;-61
2023/08/07 09:36:41;;;;;;;2.20;1.30;;;;;;;;;;4967310;28;20422;-60
2023/08/07 09:39:07;;;;;;;4.15;1.25;;;;;;;;;;4970158;28;20431;-59
2023/08/07 09:41:35;;;;;;;1.23;1.10;;;;;;;;;;4968359;28;20495;-61
2023/08/07 09:44:09;;;;;;;3.67;1.40;;;;;;;;;;4968390;28;20061;-61
2023/08/07 09:46:42;;;;;;;2.55;1.23;;;;;;;;;;4964967;28;20050;-61
2023/08/07 09:49:08;;;;;;;1.88;1.20;;;;;;;;;;4968444;28;20406;-61
2023/08/07 09:51:46;;;;;;;2.30;1.25;;;;;;;;;;4966506;28;20042;-59
2023/08/07 09:54:12;;;;;;;2.22;1.40;;;;;;;;;;4968103;28;20062;-59
2023/08/07 09:56:41;;;;;;;2.33;1.52;;;;;;;;;;4964735;28;22939;-59
2023/08/07 09:59:08;;;;;;;2.28;1.27;;;;;;;;;;4967948;28;20851;-59
2023/08/07 10:01:38;;;;;;;3.45;1.20;;;;;;;;;;4967683;28;20043;-60
2023/08/07 10:04:05;;;;;;;1.92;1.15;;;;;;;;;;4968192;28;20471;-60
2023/08/07 10:06:31;;;;;;;2.50;1.25;;;;;;;;;;4968745;28;20482;-60
2023/08/07 10:09:00;;;;;;;3.10;1.17;;;;;;;;;;4968465;28;20426;-60
2023/08/07 10:11:26;;;;;;;3.50;1.40;;;;;;;;;;4971698;28;20049;-59
2023/08/07 10:13:54;;;;;;;1.83;1.13;;;;;;;;;;4968778;28;20034;-59
2023/08/07 10:16:20;;;;;;;4.13;1.55;;;;;;;;;;4967422;28;20038;-59
2023/08/07 10:18:46;;;;;;;3.03;1.70;;;;;;;;;;4973131;28;20513;-60
2023/08/07 10:21:12;;;;;;;4.13;1.38;;;;;;;;;;4969858;28;20034;-59
2023/08/07 10:23:39;;;;;;;2.10;1.40;;;;;;;;;;4952507;28;22162;-59
2023/08/07 10:26:08;;;;;;;3.28;1.40;;;;;;;;;;4968226;28;20035;-59
2023/08/07 10:28:39;;;;;;;;;;;;;;;;;;4968098;28;20034;-60
2023/08/07 10:31:06;;;;;;;3.45;1.70;;;;;;;;;;4966248;28;19914;-60
2023/08/07 10:33:34;;;;;;;2.10;1.23;;;;;;;;;;4965576;28;20046;-59
2023/08/07 10:36:00;;;;;;;2.28;1.13;;;;;;;;;;4964401;28;20050;-60
2023/08/07 10:38:26;;;;;;;3.38;1.08;;;;;;;;;;4966760;28;20505;-60
2023/08/07 10:41:01;;;;;;;3.63;1.20;;;;;;;;;;4970471;28;20392;-60
2023/08/07 10:43:28;;;;;;;1.55;0.98;;;;;;;;;;4968263;28;20034;-60
2023/08/07 10:46:03;;;;;;;1.20;1.02;;;;;;;;;;4971121;28;20403;-60
2023/08/07 10:48:29;;;;;;;1.40;0.98;;;;;;;;;;4965492;28;20034;-60
2023/08/07 10:51:04;;;;;;;1.85;1.20;;;;;;;;;;4969439;28;20050;-60
2023/08/07 10:53:37;;;;;;;2.05;1.20;;;;;;;;;;4964340;28;20034;-60
2023/08/07 10:56:07;;;;;;;3.58;1.30;;;;;;;;;;4965304;28;20038;-60
2023/08/07 10:58:34;;;;;;;2.42;1.30;;;;;;;;;;4966893;28;20038;-59
2023/08/07 11:01:39;;;;;;;1.20;1.00;;;;;;;;;;4972903;28;20426;-60
2023/08/07 11:04:10;;;;;;;2.10;1.20;;;;;;;;;;4964794;28;20058;-60
2023/08/07 11:06:38;;;;;;;2.33;1.00;;;;;;;;;;4966228;28;20446;-60
2023/08/07 11:09:09;;;;;;;2.08;1.10;;;;;;;;;;4966170;28;20026;-60
2023/08/07 11:12:01;;;;;;;2.97;1.55;;;;;;;;;;4964213;28;20085;-60
2023/08/07 11:14:28;;;;;;;3.75;1.25;;;;;;;;;;4964530;28;20039;-60
2023/08/07 11:16:54;;;;;;;2.42;1.30;;;;;;;;;;4968952;28;20489;-60
2023/08/07 11:19:20;;;;;;;1.88;1.20;;;;;;;;;;4970147;28;20414;-60
2023/08/07 11:21:47;;;;;;;3.42;1.15;;;;;;;;;;4969177;28;20050;-60
2023/08/07 11:24:15;;;;;;;1.13;1.02;;;;;;;;;;4967933;28;20438;-60
2023/08/07 11:26:44;;;;;;;1.63;1.27;;;;;;;;;;4965293;28;20061;-60
2023/08/07 11:29:10;;;;;;;2.63;1.30;;;;;;;;;;4965795;28;20047;-60
2023/08/07 11:31:37;;;;;;;2.42;1.10;;;;;;;;;;4965937;28;20039;-59
2023/08/07 11:34:03;;;;;;;2.50;1.38;;;;;;;;;;4969991;28;20030;-60
2023/08/07 11:36:29;;;;;;;3.60;1.35;;;;;;;;;;4964888;28;20038;-60
2023/08/07 11:38:56;;;;;;;2.75;1.48;;;;;;;;;;4969403;28;20525;-59
2023/08/07 11:41:22;;;;;;;2.75;1.10;;;;;;;;;;4967480;28;20051;-60
2023/08/07 11:43:48;;;;;;;2.88;1.40;;;;;;;;;;4971507;28;20034;-60
2023/08/07 11:46:15;;;;;;;1.83;1.20;;;;;;;;;;4973464;28;20042;-60
2023/08/07 11:48:43;;;;;;;2.95;1.73;;;;;;;;;;4974433;28;20433;-60
2023/08/07 11:51:09;;;;;;;1.88;1.52;;;;;;;;;;4969016;28;20051;-60
2023/08/07 11:53:37;;;;;;;1.33;1.20;;;;;;;;;;4967931;28;20046;-59
2023/08/07 11:56:11;;;;;;;2.03;1.50;;;;;;;;;;4970469;28;20051;-60
2023/08/07 11:58:39;;;;;;;3.22;1.48;;;;;;;;;;4972970;28;20038;-59
2023/08/07 12:01:16;;;;;;;2.70;1.13;;;;;;;;;;4974451;28;20050;-59
2023/08/07 12:04:16;;;;;;;6.28;1.60;;;;;;;;;;4969310;28;20402;-59
2023/08/07 12:06:56;;;;;;;1.42;1.20;;;;;;;;;;4925155;28;20502;-59
2023/08/07 12:09:22;;;;;;;;;;;;;;;;;;4968754;28;20047;-60
2023/08/07 12:11:48;;;;;;;2.45;1.52;;;;;;;;;;4972312;28;20370;-60
2023/08/07 12:14:16;;;;;;;2.90;1.60;;;;;;;;;;4969256;28;20566;-60
2023/08/07 12:16:45;;;;;;;3.40;1.50;;;;;;;;;;4968628;28;20055;-60
2023/08/07 12:19:11;;;;;;;2.88;1.33;;;;;;;;;;4972594;28;20297;-60
2023/08/07 12:21:39;;;;;;;3.10;1.30;;;;;;;;;;4973545;28;20050;-60
2023/08/07 12:24:07;;;;;;;2.38;1.60;;;;;;;;;;4972611;28;20050;-60
2023/08/07 12:26:33;;;;;;;3.55;1.80;;;;;;;;;;4973043;28;20046;-60
2023/08/07 12:28:59;;;;;;;6.13;1.70;;;;;;;;;;4970677;28;20043;-60
2023/08/07 12:31:25;;;;;;;3.85;1.55;;;;;;;;;;4968154;28;20050;-59
2023/08/07 12:33:51;;;;;;;3.22;1.38;;;;;;;;;;4968399;28;20042;-59
2023/08/07 12:36:17;;;;;;;4.47;1.38;;;;;;;;;;4973287;28;20054;-59
2023/08/07 12:38:44;;;;;;;3.15;1.10;;;;;;;;;;4968456;28;20131;-59
2023/08/07 12:41:10;;;;;;;3.05;1.15;;;;;;;;;;4971991;28;20046;-60
2023/08/07 12:43:36;;;;;;;4.15;1.45;;;;;;;;;;4970119;28;20043;-59
2023/08/07 12:46:03;;;;;;;3.00;1.33;;;;;;;;;;4970130;28;20425;-60
2023/08/07 12:48:29;;;;;;;2.83;1.25;;;;;;;;;;4966039;28;20035;-60
2023/08/07 12:50:55;;;;;;;1.80;1.50;;;;;;;;;;4971777;28;20058;-60
2023/08/07 12:53:21;;;;;;;1.83;1.40;;;;;;;;;;4969297;28;20035;-59
2023/08/07 12:55:47;;;;;;;2.42;1.42;;;;;;;;;;4971358;28;20506;-59
2023/08/07 12:58:13;;;;;;;3.75;1.40;;;;;;;;;;4968120;28;20039;-60
2023/08/07 13:00:39;;;;;;;4.60;1.38;;;;;;;;;;4966408;28;20046;-60
2023/08/07 13:03:05;;;;;;;2.97;1.52;;;;;;;;;;4971131;28;20490;-60
2023/08/07 13:05:32;;;;;;;1.50;1.40;;;;;;;;;;4967506;28;20039;-60
2023/08/07 13:07:58;;;;;;;2.30;1.65;;;;;;;;;;4968673;28;20387;-59
2023/08/07 13:10:27;;;;;;;3.17;1.70;;;;;;;;;;4972081;28;20047;-60
2023/08/07 13:12:53;;;;;;;;;;;;;;;;;;4966655;28;20030;-60
2023/08/07 13:15:20;;;;;;;2.88;1.55;;;;;;;;;;4966305;28;19926;-60
2023/08/07 13:17:46;;;;;;;1.40;1.20;;;;;;;;;;4972526;28;21716;-59
2023/08/07 13:20:13;;;;;;;2.83;1.33;;;;;;;;;;4972919;28;20532;-60
2023/08/07 13:22:42;;;;;;;2.53;1.70;;;;;;;;;;4968801;28;20062;-60
2023/08/07 13:25:09;;;;;;;1.85;1.45;;;;;;;;;;4969142;28;20055;-60
2023/08/07 13:27:36;;;;;;;2.00;1.50;;;;;;;;;;4968034;28;20051;-60
2023/08/07 13:30:03;;;;;;;2.38;1.05;;;;;;;;;;4968126;28;20062;-60
2023/08/07 13:32:31;;;;;;;4.20;3.15;;;;;;;;;;4965264;28;20030;-60
2023/08/07 13:34:58;;;;;;;2.83;1.80;;;;;;;;;;4964912;28;20043;-60
2023/08/07 13:37:24;;;;;;;2.33;1.67;;;;;;;;;;4962938;28;20043;-60
2023/08/07 13:39:52;;;;;;;2.95;2.10;;;;;;;;;;4967411;28;20034;-60
2023/08/07 13:42:18;;;;;;;3.47;2.28;;;;;;;;;;4974095;28;20050;-60
2023/08/07 13:44:45;;;;;;;2.90;1.70;;;;;;;;;;4970792;28;20501;-60
2023/08/07 13:47:11;;;;;;;3.30;1.70;;;;;;;;;;4969613;28;20043;-60
2023/08/07 13:49:38;;;;;;;3.28;1.50;;;;;;;;;;4972902;28;20077;-60
2023/08/07 13:52:05;;;;;;;3.35;1.80;;;;;;;;;;4972508;28;20057;-60
2023/08/07 13:54:31;;;;;;;2.15;1.50;;;;;;;;;;4968907;28;20053;-60
2023/08/07 13:56:57;;;;;;;2.78;1.55;;;;;;;;;;4968818;28;20042;-60
2023/08/07 13:59:23;;;;;;;5.82;4.18;;;;;;;;;;4963649;28;20501;-59
2023/08/07 14:01:50;;;;;;;2.38;1.73;;;;;;;;;;4968973;28;20034;-60
2023/08/07 14:04:16;;;;;;;2.80;1.83;;;;;;;;;;4969428;28;20066;-60
2023/08/07 14:06:44;;;;;;;4.13;1.50;;;;;;;;;;4968496;28;20499;-60
2023/08/07 14:09:10;;;;;;;1.92;1.40;;;;;;;;;;4970706;28;20049;-60
2023/08/07 14:11:38;;;;;;;1.80;1.27;;;;;;;;;;4969303;28;20054;-60
2023/08/07 14:14:04;;;;;;;2.72;1.45;;;;;;;;;;4963685;28;20047;-59
2023/08/07 14:16:31;;;;;;;1.83;1.20;;;;;;;;;;4961893;28;20054;-60
2023/08/07 14:18:57;;;;;;;1.52;1.20;;;;;;;;;;4971675;28;20652;-60
2023/08/07 14:21:24;;;;;;;2.13;1.20;;;;;;;;;;4966873;28;20054;-62
2023/08/07 14:23:50;;;;;;;2.63;1.30;;;;;;;;;;4970042;28;20043;-60
2023/08/07 14:26:18;;;;;;;3.03;1.23;;;;;;;;;;4965970;28;20035;-60
2023/08/07 14:28:44;;;;;;;2.50;1.13;;;;;;;;;;4967115;28;20395;-60
2023/08/07 14:31:10;;;;;;;1.58;1.20;;;;;;;;;;4967485;28;20422;-60
2023/08/07 14:33:37;;;;;;;1.33;1.10;;;;;;;;;;4963720;28;20053;-60
2023/08/07 14:36:04;;;;;;;1.80;1.40;;;;;;;;;;4967562;28;20039;-61
2023/08/07 14:38:30;;;;;;;1.60;1.25;;;;;;;;;;4965718;28;20414;-60
2023/08/07 14:40:56;;;;;;;2.70;1.20;;;;;;;;;;4964891;28;20482;-61
2023/08/07 14:43:23;;;;;;;6.50;1.55;;;;;;;;;;4966115;28;20046;-61
2023/08/07 14:45:49;;;;;;;2.45;1.58;;;;;;;;;;4964967;28;20027;-60